createdAt,value
2023-07-19T00:02:24.729Z,3.53
2023-07-19T00:04:52.591Z,3.90
2023-07-19T00:07:20.267Z,3.65
2023-07-19T00:09:47.873Z,4.05
2023-07-19T00:12:15.843Z,4.22
2023-07-19T00:14:43.550Z,4.60
2023-07-19T00:17:11.223Z,4.75
2023-07-19T00:19:39.032Z,4.88
2023-07-19T00:22:07.051Z,5.22
2023-07-19T00:24:34.972Z,5.55
2023-07-19T00:27:02.696Z,5.88
2023-07-19T00:29:30.420Z,5.97
2023-07-19T00:31:58.309Z,5.30
2023-07-19T00:34:25.988Z,5.57
2023-07-19T00:36:53.714Z,6.22
2023-07-19T00:39:21.379Z,5.85
2023-07-19T00:41:49.004Z,5.45
2023-07-19T00:44:16.725Z,7.13
2023-07-19T00:46:45.391Z,6.70
2023-07-19T00:49:13.239Z,7.78
2023-07-19T00:51:42.016Z,8.80
2023-07-19T00:54:10.813Z,14.00
2023-07-19T00:56:42.019Z,13.23
2023-07-19T00:59:15.863Z,13.32
2023-07-19T01:01:45.782Z,12.35
2023-07-19T01:04:14.096Z,10.65
2023-07-19T01:06:43.530Z,6.93
2023-07-19T01:09:13.394Z,6.85
2023-07-19T01:11:44.121Z,5.90
2023-07-19T01:14:11.860Z,5.80
2023-07-19T01:16:40.191Z,6.45
2023-07-19T01:19:10.630Z,6.55
2023-07-19T01:24:09.301Z,6.82
2023-07-19T01:26:37.155Z,8.20
2023-07-19T01:29:04.828Z,7.72
2023-07-19T01:31:32.495Z,7.80
2023-07-19T01:34:00.196Z,7.18
2023-07-19T01:36:28.954Z,7.28
2023-07-19T01:38:56.739Z,7.70
2023-07-19T01:41:26.187Z,7.35
2023-07-19T01:43:54.994Z,7.22
2023-07-19T01:46:22.647Z,6.95
2023-07-19T01:48:50.314Z,7.47
2023-07-19T01:51:18.234Z,6.95
2023-07-19T01:53:45.968Z,6.45
2023-07-19T01:56:13.660Z,6.68
2023-07-19T01:58:42.013Z,6.57
2023-07-19T02:01:09.735Z,5.80
2023-07-19T02:03:37.382Z,7.65
2023-07-19T02:06:05.103Z,7.10
2023-07-19T02:08:32.751Z,6.35
2023-07-19T02:11:01.777Z,5.85
2023-07-19T02:13:29.503Z,4.80
2023-07-19T02:15:57.321Z,5.57
2023-07-19T02:18:25.181Z,5.55
2023-07-19T02:20:55.528Z,5.95
2023-07-19T02:23:24.932Z,5.38
2023-07-19T02:25:52.749Z,5.75
2023-07-19T02:28:21.947Z,5.50
2023-07-19T02:30:50.081Z,5.28
2023-07-19T02:33:18.350Z,5.97
2023-07-19T02:35:46.182Z,6.32
2023-07-19T02:38:13.729Z,5.93
2023-07-19T02:40:41.988Z,6.00
2023-07-19T02:43:12.096Z,5.78
2023-07-19T02:45:40.335Z,6.05
2023-07-19T02:48:08.068Z,5.95
2023-07-19T02:50:36.737Z,6.75
2023-07-19T02:53:04.325Z,7.07
2023-07-19T02:55:31.954Z,6.88
2023-07-19T02:57:59.774Z,6.88
2023-07-19T03:00:28.125Z,5.88
2023-07-19T03:02:57.249Z,6.93
2023-07-19T03:05:24.996Z,6.90
2023-07-19T03:07:53.463Z,6.95
2023-07-19T03:10:21.172Z,5.97
2023-07-19T03:12:49.178Z,6.10
2023-07-19T03:15:16.847Z,9.00
2023-07-19T03:17:44.549Z,8.27
2023-07-19T03:20:13.527Z,4.50
2023-07-19T03:22:41.401Z,3.88
2023-07-19T03:25:09.244Z,3.80
2023-07-19T03:27:37.020Z,3.20
2023-07-19T03:30:06.632Z,3.47
2023-07-19T03:32:35.147Z,3.33
2023-07-19T03:35:02.807Z,3.40
2023-07-19T03:37:33.093Z,3.45
2023-07-19T03:40:00.901Z,3.38
2023-07-19T03:42:33.059Z,3.03
2023-07-19T03:45:00.833Z,3.20
2023-07-19T03:47:31.789Z,3.55
2023-07-19T03:50:00.917Z,3.55
2023-07-19T03:52:31.357Z,3.92
2023-07-19T03:54:59.893Z,3.60
2023-07-19T03:57:34.093Z,3.60
2023-07-19T04:00:02.775Z,3.63
2023-07-19T04:02:33.509Z,4.20
2023-07-19T04:05:01.264Z,3.90
2023-07-19T04:07:31.423Z,4.45
2023-07-19T04:09:59.135Z,4.15
2023-07-19T04:12:26.988Z,3.90
2023-07-19T04:14:54.804Z,3.55
2023-07-19T04:17:26.456Z,3.55
2023-07-19T04:19:54.163Z,3.90
2023-07-19T04:22:22.567Z,3.17
2023-07-19T04:24:51.750Z,3.30
2023-07-19T04:27:19.632Z,3.17
2023-07-19T04:29:47.371Z,3.30
2023-07-19T04:32:15.448Z,2.80
2023-07-19T04:34:43.163Z,3.20
2023-07-19T04:37:12.530Z,3.00
2023-07-19T04:39:41.575Z,2.83
2023-07-19T04:42:10.392Z,3.00
2023-07-19T04:44:39.614Z,2.70
2023-07-19T04:47:08.544Z,2.72
2023-07-19T04:49:37.564Z,3.00
2023-07-19T04:52:06.059Z,3.00
2023-07-19T04:54:34.477Z,2.90
2023-07-19T04:57:02.441Z,3.20
2023-07-19T04:59:30.448Z,3.60
2023-07-19T05:01:58.885Z,3.50
2023-07-19T05:04:27.128Z,3.72
2023-07-19T05:06:54.872Z,3.92
2023-07-19T05:09:23.762Z,3.90
2023-07-19T05:11:51.620Z,4.15
2023-07-19T05:14:19.438Z,4.00
2023-07-19T05:16:47.102Z,3.60
2023-07-19T05:19:14.746Z,3.65
2023-07-19T05:21:42.475Z,3.70
2023-07-19T05:24:10.734Z,3.60
2023-07-19T05:26:40.802Z,3.65
2023-07-19T05:29:09.470Z,3.35
2023-07-19T05:31:37.304Z,3.65
2023-07-19T05:34:05.027Z,4.03
2023-07-19T05:36:32.632Z,3.95
2023-07-19T05:39:01.210Z,3.63
2023-07-19T05:41:29.134Z,3.90
2023-07-19T05:44:10.309Z,3.50
2023-07-19T05:46:40.031Z,3.50
2023-07-19T05:49:07.643Z,3.33
2023-07-19T05:51:35.440Z,3.38
2023-07-19T05:54:05.403Z,3.30
2023-07-19T05:56:33.182Z,3.50
2023-07-19T05:59:02.089Z,3.88
2023-07-19T06:01:33.361Z,3.70
2023-07-19T06:06:30.351Z,3.28
2023-07-19T06:08:58.172Z,3.63
2023-07-19T06:11:25.786Z,3.00
2023-07-19T06:13:55.185Z,3.17
2023-07-19T06:16:22.828Z,3.55
2023-07-19T06:18:50.665Z,3.38
2023-07-19T06:21:19.188Z,3.50
2023-07-19T06:23:47.158Z,3.65
2023-07-19T06:26:15.616Z,3.72
2023-07-19T06:28:43.456Z,2.95
2023-07-19T06:31:11.188Z,3.13
2023-07-19T06:33:39.076Z,3.25
2023-07-19T06:36:06.988Z,2.92
2023-07-19T06:38:38.501Z,3.25
2023-07-19T06:41:06.873Z,3.40
2023-07-19T06:43:34.873Z,3.10
2023-07-19T06:46:02.797Z,2.80
2023-07-19T06:48:30.423Z,2.80
2023-07-19T06:50:58.740Z,2.90
2023-07-19T06:53:26.429Z,3.30
2023-07-19T06:55:59.739Z,2.40
2023-07-19T06:58:28.033Z,2.70
2023-07-19T07:00:58.128Z,2.35
2023-07-19T07:03:26.800Z,2.35
2023-07-19T07:05:54.573Z,2.17
2023-07-19T07:08:24.557Z,2.33
2023-07-19T07:10:52.330Z,2.60
2023-07-19T07:13:19.965Z,2.30
2023-07-19T07:15:48.117Z,2.50
2023-07-19T07:18:15.951Z,2.60
2023-07-19T07:20:44.212Z,2.70
2023-07-19T07:23:11.899Z,2.50
2023-07-19T07:25:39.993Z,4.90
2023-07-19T07:28:07.741Z,2.33
2023-07-19T07:30:38.608Z,9.35
2023-07-19T07:33:06.412Z,4.90
2023-07-19T07:35:35.645Z,2.50
2023-07-19T07:38:03.546Z,4.00
2023-07-19T07:40:31.382Z,2.22
2023-07-19T07:42:59.254Z,2.47
2023-07-19T07:45:26.984Z,2.22
2023-07-19T07:47:54.734Z,2.45
2023-07-19T07:50:24.543Z,2.30
2023-07-19T07:53:02.448Z,2.50
2023-07-19T07:55:37.589Z,2.65
2023-07-19T07:58:05.647Z,2.10
2023-07-19T08:00:33.548Z,2.30
2023-07-19T08:03:01.645Z,1.90
2023-07-19T08:05:29.661Z,1.98
2023-07-19T08:07:59.212Z,2.10
2023-07-19T08:10:29.305Z,2.30
2023-07-19T08:12:59.140Z,2.25
2023-07-19T08:15:26.915Z,2.60
2023-07-19T08:17:54.902Z,2.15
2023-07-19T08:20:23.635Z,2.50
2023-07-19T08:22:51.436Z,2.85
2023-07-19T08:25:27.798Z,2.47
2023-07-19T08:27:56.438Z,2.60
2023-07-19T08:30:25.496Z,2.53
2023-07-19T08:32:54.729Z,2.47
2023-07-19T08:35:22.527Z,2.35
2023-07-19T08:37:50.348Z,2.78
2023-07-19T08:40:19.435Z,2.78
2023-07-19T08:42:47.135Z,2.67
2023-07-19T08:45:15.788Z,2.30
2023-07-19T08:47:45.101Z,2.50
2023-07-19T08:50:13.312Z,2.55
2023-07-19T08:52:41.110Z,2.40
2023-07-19T08:55:09.641Z,2.00
2023-07-19T08:57:44.243Z,2.35
2023-07-19T09:00:12.475Z,2.33
2023-07-19T09:02:40.195Z,2.00
2023-07-19T09:05:08.857Z,2.05
2023-07-19T09:07:38.259Z,1.95
2023-07-19T09:10:07.783Z,1.88
2023-07-19T09:12:46.083Z,2.00
2023-07-19T09:15:15.205Z,1.95
2023-07-19T09:17:43.764Z,1.90
2023-07-19T09:20:12.860Z,2.00
2023-07-19T09:22:41.386Z,2.22
2023-07-19T09:25:12.088Z,2.25
2023-07-19T09:27:44.068Z,2.10
2023-07-19T09:30:13.851Z,2.05
2023-07-19T09:32:42.389Z,2.10
2023-07-19T09:35:10.820Z,2.08
2023-07-19T09:37:38.962Z,2.30
2023-07-19T09:40:07.252Z,2.25
2023-07-19T09:42:39.422Z,2.17
2023-07-19T09:45:07.953Z,2.05
2023-07-19T09:47:37.076Z,1.80
2023-07-19T09:50:07.950Z,2.00
2023-07-19T09:52:39.817Z,1.77
2023-07-19T09:55:08.338Z,1.98
2023-07-19T09:57:41.674Z,1.63
2023-07-19T10:00:11.624Z,1.52
2023-07-19T10:02:40.456Z,1.55
2023-07-19T10:05:10.990Z,1.73
2023-07-19T10:07:49.951Z,1.70
2023-07-19T10:10:21.646Z,2.00
2023-07-19T10:12:51.727Z,2.20
2023-07-19T10:15:23.256Z,2.33
2023-07-19T10:17:56.919Z,2.20
2023-07-19T10:20:29.288Z,1.85
2023-07-19T10:22:59.635Z,2.25
2023-07-19T10:25:36.538Z,2.25
2023-07-19T10:28:07.644Z,2.22
2023-07-19T10:31:10.047Z,2.17
2023-07-19T10:33:45.610Z,2.10
2023-07-19T10:36:15.619Z,2.08
2023-07-19T10:38:43.410Z,2.33
2023-07-19T10:41:12.808Z,2.15
2023-07-19T10:46:11.766Z,1.90
2023-07-19T10:48:42.212Z,2.15
2023-07-19T10:51:12.072Z,2.42
2023-07-19T10:54:00.623Z,2.78
2023-07-19T10:56:30.010Z,3.20
2023-07-19T10:59:01.001Z,2.40
2023-07-19T11:01:32.008Z,2.30
2023-07-19T11:04:06.398Z,2.40
2023-07-19T11:06:56.051Z,2.30
2023-07-19T11:09:24.613Z,2.22
2023-07-19T11:11:53.052Z,2.30
2023-07-19T11:14:34.310Z,2.50
2023-07-19T11:17:02.347Z,2.10
2023-07-19T11:19:40.435Z,2.00
2023-07-19T11:22:09.781Z,2.20
2023-07-19T11:24:39.924Z,2.15
2023-07-19T11:27:09.665Z,1.73
2023-07-19T11:29:37.350Z,1.48
2023-07-19T11:32:23.995Z,1.02
2023-07-19T11:34:57.799Z,1.70
2023-07-19T11:37:31.553Z,1.58
2023-07-19T11:40:07.313Z,1.70
2023-07-19T11:42:48.612Z,1.85
2023-07-19T11:45:18.903Z,2.00
2023-07-19T11:47:49.760Z,2.00
2023-07-19T11:50:17.727Z,2.55
2023-07-19T11:52:56.244Z,2.10
2023-07-19T11:55:26.146Z,2.50
2023-07-19T11:57:55.410Z,2.35
2023-07-19T12:00:25.174Z,2.65
2023-07-19T12:02:53.675Z,2.90
2023-07-19T12:05:24.119Z,2.97
2023-07-19T12:07:56.266Z,4.07
2023-07-19T12:10:25.216Z,4.13
2023-07-19T12:12:52.920Z,4.00
2023-07-19T12:15:20.537Z,3.53
2023-07-19T12:17:48.547Z,3.38
2023-07-19T12:20:16.221Z,3.78
2023-07-19T12:22:47.101Z,4.10
2023-07-19T12:25:15.561Z,5.00
2023-07-19T12:27:43.690Z,4.30
2023-07-19T12:30:12.254Z,3.55
2023-07-19T12:32:40.421Z,4.05
2023-07-19T12:35:09.235Z,4.05
2023-07-19T12:37:37.088Z,4.38
2023-07-19T12:40:10.696Z,4.10
2023-07-19T12:42:38.638Z,3.50
2023-07-19T12:45:11.214Z,3.65
2023-07-19T12:47:39.809Z,3.65
2023-07-19T12:50:08.104Z,3.80
2023-07-19T12:52:49.964Z,3.28
2023-07-19T12:55:19.809Z,2.92
2023-07-19T12:57:48.873Z,3.55
2023-07-19T13:00:17.003Z,3.78
2023-07-19T13:02:48.039Z,3.00
2023-07-19T13:05:16.291Z,3.03
2023-07-19T13:07:43.888Z,3.10
2023-07-19T13:10:11.949Z,2.90
2023-07-19T13:12:39.724Z,2.50
2023-07-19T13:15:07.873Z,3.03
2023-07-19T13:17:36.223Z,2.50
2023-07-19T13:20:09.701Z,2.17
2023-07-19T13:22:38.316Z,1.95
2023-07-19T13:25:07.336Z,1.77
2023-07-19T13:27:36.900Z,1.83
2023-07-19T13:30:09.028Z,3.20
2023-07-19T13:32:37.245Z,2.25
2023-07-19T13:35:05.402Z,3.00
2023-07-19T13:40:11.950Z,1.70
2023-07-19T13:42:39.927Z,2.17
2023-07-19T13:45:08.195Z,2.00
2023-07-19T13:47:35.993Z,2.10
2023-07-19T13:50:04.158Z,1.95
2023-07-19T13:52:31.998Z,1.90
2023-07-19T13:54:59.604Z,1.90
2023-07-19T13:57:30.203Z,2.60
2023-07-19T13:59:58.113Z,2.42
2023-07-19T14:02:27.530Z,3.05
2023-07-19T14:04:56.313Z,2.28
2023-07-19T14:07:24.661Z,2.35
2023-07-19T14:09:52.534Z,2.25
2023-07-19T14:12:20.451Z,2.53
2023-07-19T14:14:48.067Z,2.40
2023-07-19T14:17:18.805Z,3.00
2023-07-19T14:19:49.936Z,2.83
2023-07-19T14:22:17.690Z,2.20
2023-07-19T14:24:45.385Z,2.50
2023-07-19T14:27:13.833Z,2.70
2023-07-19T14:29:43.399Z,3.20
2023-07-19T14:32:12.161Z,2.92
2023-07-19T14:37:16.701Z,3.20
2023-07-19T14:39:45.127Z,3.17
2023-07-19T14:42:13.416Z,3.42
2023-07-19T14:44:41.521Z,3.53
2023-07-19T14:47:09.299Z,2.97
2023-07-19T14:49:37.885Z,2.75
2023-07-19T14:52:05.723Z,2.75
2023-07-19T14:54:33.511Z,2.80
2023-07-19T14:57:05.811Z,3.03
2023-07-19T14:59:34.074Z,3.15
2023-07-19T15:02:02.083Z,3.38
2023-07-19T15:04:30.235Z,3.60
2023-07-19T15:06:58.038Z,3.40
2023-07-19T15:09:26.023Z,3.75
2023-07-19T15:11:53.965Z,3.03
2023-07-19T15:14:21.889Z,3.30
2023-07-19T15:16:49.741Z,3.40
2023-07-19T15:19:17.772Z,3.50
2023-07-19T15:21:46.380Z,3.08
2023-07-19T15:24:14.116Z,3.33
2023-07-19T15:26:42.437Z,2.80
2023-07-19T15:29:10.327Z,3.10
2023-07-19T15:31:39.643Z,2.63
2023-07-19T15:34:07.398Z,3.17
2023-07-19T15:36:35.059Z,4.15
2023-07-19T15:39:02.741Z,3.92
2023-07-19T15:41:30.508Z,4.78
2023-07-19T15:43:58.058Z,4.55
2023-07-19T15:46:26.016Z,3.38
2023-07-19T15:48:53.619Z,3.50
2023-07-19T15:51:21.546Z,3.60
2023-07-19T15:53:49.626Z,3.22
2023-07-19T15:56:17.255Z,3.90
2023-07-19T15:58:44.989Z,3.53
2023-07-19T16:01:14.586Z,4.57
2023-07-19T16:03:45.072Z,3.70
2023-07-19T16:06:13.048Z,3.70
2023-07-19T16:08:42.328Z,3.30
2023-07-19T16:11:10.585Z,4.00
2023-07-19T16:13:38.279Z,5.53
2023-07-19T16:16:06.349Z,6.80
2023-07-19T16:18:35.566Z,7.53
2023-07-19T16:21:03.871Z,6.03
2023-07-19T16:23:31.576Z,6.63
2023-07-19T16:25:59.202Z,7.03
2023-07-19T16:28:26.830Z,9.98
2023-07-19T16:30:54.955Z,9.70
2023-07-19T16:33:22.887Z,7.90
2023-07-19T16:35:50.598Z,8.35
2023-07-19T16:38:18.535Z,5.40
2023-07-19T16:40:46.315Z,7.00
2023-07-19T16:43:13.863Z,8.85
2023-07-19T16:45:41.529Z,7.18
2023-07-19T16:48:09.137Z,6.80
2023-07-19T16:50:37.364Z,7.13
2023-07-19T16:53:16.382Z,7.95
2023-07-19T16:55:44.265Z,7.82
2023-07-19T16:58:13.188Z,7.03
2023-07-19T17:00:41.997Z,6.95
2023-07-19T17:03:09.965Z,5.93
2023-07-19T17:05:39.325Z,5.65
2023-07-19T17:08:07.610Z,5.47
2023-07-19T17:10:36.375Z,5.90
2023-07-19T17:13:05.411Z,6.63
2023-07-19T17:15:36.417Z,5.95
2023-07-19T17:18:06.733Z,6.68
2023-07-19T17:20:35.211Z,6.15
2023-07-19T17:23:03.817Z,6.80
2023-07-19T17:25:31.778Z,6.38
2023-07-19T17:27:59.627Z,6.68
2023-07-19T17:30:27.574Z,7.07
2023-07-19T17:32:55.414Z,7.00
2023-07-19T17:35:23.106Z,6.45
2023-07-19T17:37:50.719Z,7.32
2023-07-19T17:40:18.312Z,7.75
2023-07-19T17:42:45.893Z,7.80
2023-07-19T17:45:13.721Z,7.85
2023-07-19T17:47:41.499Z,6.65
2023-07-19T17:50:10.293Z,6.60
2023-07-19T17:52:39.434Z,7.22
2023-07-19T17:55:07.473Z,7.63
2023-07-19T17:57:35.087Z,7.30
2023-07-19T18:00:04.974Z,9.15
2023-07-19T18:05:03.992Z,8.20
2023-07-19T18:07:32.681Z,9.68
2023-07-19T18:10:00.366Z,12.30
2023-07-19T18:12:27.942Z,9.18
2023-07-19T18:14:55.654Z,9.30
2023-07-19T18:17:23.252Z,9.18
2023-07-19T18:19:50.960Z,8.82
2023-07-19T18:22:18.591Z,8.93
2023-07-19T18:24:46.677Z,9.98
2023-07-19T18:27:14.227Z,9.27
2023-07-19T18:29:41.819Z,11.50
2023-07-19T18:32:09.735Z,11.43
2023-07-19T18:34:37.485Z,14.23
2023-07-19T18:37:05.497Z,13.93
2023-07-19T18:39:33.272Z,13.73
2023-07-19T18:42:03.817Z,13.55
2023-07-19T18:44:34.319Z,13.02
2023-07-19T18:47:04.088Z,11.90
2023-07-19T18:49:31.736Z,12.57
2023-07-19T18:52:00.345Z,12.88
2023-07-19T18:54:31.301Z,11.80
2023-07-19T18:56:59.219Z,11.02
2023-07-19T18:59:27.143Z,12.32
2023-07-19T19:01:54.849Z,10.07
2023-07-19T19:04:22.655Z,11.50
2023-07-19T19:06:50.218Z,10.40
2023-07-19T19:09:18.099Z,11.00
2023-07-19T19:11:45.746Z,10.48
2023-07-19T19:14:13.507Z,9.50
2023-07-19T19:16:41.266Z,10.48
2023-07-19T19:19:11.281Z,10.18
2023-07-19T19:21:38.997Z,10.60
2023-07-19T19:24:09.399Z,10.02
2023-07-19T19:26:38.053Z,9.30
2023-07-19T19:29:05.936Z,9.57
2023-07-19T19:31:34.510Z,9.88
2023-07-19T19:34:02.208Z,9.73
2023-07-19T19:36:29.847Z,10.00
2023-07-19T19:38:57.686Z,10.55
2023-07-19T19:41:25.528Z,10.25
2023-07-19T19:43:53.264Z,9.93
2023-07-19T19:46:20.932Z,11.20
2023-07-19T19:48:48.672Z,11.90
2023-07-19T19:51:16.437Z,11.45
2023-07-19T19:53:43.987Z,10.77
2023-07-19T19:58:43.958Z,10.50
2023-07-19T20:01:11.490Z,10.30
2023-07-19T20:03:39.347Z,10.23
2023-07-19T20:06:07.048Z,10.80
2023-07-19T20:08:34.772Z,9.82
2023-07-19T20:11:02.364Z,8.73
2023-07-19T20:13:30.053Z,8.60
2023-07-19T20:16:00.986Z,8.20
2023-07-19T20:21:00.351Z,8.45
2023-07-19T20:23:28.218Z,8.77
2023-07-19T20:26:12.826Z,9.57
2023-07-19T20:28:42.565Z,9.65
2023-07-19T20:31:10.259Z,8.73
2023-07-19T20:33:41.986Z,10.55
2023-07-19T20:36:45.762Z,10.00
2023-07-19T20:38:59.459Z,13.85
2023-07-19T20:43:57.864Z,10.73
2023-07-19T20:46:25.689Z,11.88
2023-07-19T20:48:57.422Z,9.82
2023-07-19T20:51:33.015Z,10.27
2023-07-19T20:54:01.883Z,9.88
2023-07-19T20:56:29.519Z,9.35
2023-07-19T20:58:57.148Z,8.77
2023-07-19T21:01:25.181Z,8.35
2023-07-19T21:03:53.233Z,8.27
2023-07-19T21:06:20.818Z,8.43
2023-07-19T21:08:49.219Z,9.23
2023-07-19T21:11:16.870Z,8.10
2023-07-19T21:13:44.495Z,8.40
2023-07-19T21:16:12.106Z,8.23
2023-07-19T21:18:39.851Z,8.20
2023-07-19T21:21:07.524Z,8.27
2023-07-19T21:23:35.453Z,8.85
2023-07-19T21:26:03.064Z,8.20
2023-07-19T21:28:30.800Z,9.77
2023-07-19T21:30:58.696Z,9.38
2023-07-19T21:33:26.388Z,9.77
2023-07-19T21:35:54.630Z,9.25
2023-07-19T21:38:23.390Z,8.57
2023-07-19T21:40:51.293Z,10.20
2023-07-19T21:43:18.852Z,9.63
2023-07-19T21:45:46.558Z,9.90
2023-07-19T21:48:14.366Z,9.00
2023-07-19T21:50:48.579Z,9.60
2023-07-19T21:53:17.484Z,9.95
2023-07-19T21:55:45.964Z,10.02
2023-07-19T21:58:13.653Z,9.35
2023-07-19T22:00:43.031Z,9.00
2023-07-19T22:03:14.003Z,9.48
2023-07-19T22:05:42.814Z,9.60
2023-07-19T22:08:11.123Z,10.70
2023-07-19T22:10:38.889Z,10.02
2023-07-19T22:13:09.601Z,10.60
2023-07-19T22:15:37.240Z,10.95
2023-07-19T22:18:25.875Z,11.05
2023-07-19T22:21:01.033Z,10.55
2023-07-19T22:23:35.326Z,11.27
2023-07-19T22:26:03.076Z,12.05
2023-07-19T22:28:30.734Z,11.93
2023-07-19T22:30:58.696Z,12.15
2023-07-19T22:33:26.517Z,12.25
2023-07-19T22:35:54.164Z,11.38
2023-07-19T22:38:21.865Z,11.90
2023-07-19T22:40:49.546Z,11.60
2023-07-19T22:43:17.181Z,10.27
2023-07-19T22:45:44.812Z,9.63
2023-07-19T22:48:12.629Z,10.10
2023-07-19T22:50:40.673Z,11.20
2023-07-19T22:53:08.497Z,11.23
2023-07-19T22:55:36.040Z,9.13
2023-07-19T22:58:03.681Z,12.05
2023-07-19T23:00:31.988Z,11.82
2023-07-19T23:02:59.735Z,11.68
2023-07-19T23:05:27.586Z,11.82
2023-07-19T23:07:55.484Z,12.40
2023-07-19T23:10:24.536Z,12.15
2023-07-19T23:12:53.584Z,9.88
2023-07-19T23:15:21.531Z,11.35
2023-07-19T23:17:49.393Z,9.82
2023-07-19T23:20:17.111Z,10.55
2023-07-19T23:22:44.926Z,11.27
2023-07-19T23:25:14.455Z,10.38
2023-07-19T23:27:43.063Z,10.60
2023-07-19T23:30:11.545Z,11.38
2023-07-19T23:32:39.196Z,10.00
2023-07-19T23:35:10.305Z,10.05
2023-07-19T23:37:37.923Z,9.60
2023-07-19T23:40:08.259Z,10.07
2023-07-19T23:42:35.878Z,9.70
2023-07-19T23:45:03.708Z,9.15
2023-07-19T23:47:33.048Z,9.70
2023-07-19T23:50:00.723Z,9.13
2023-07-19T23:52:28.470Z,9.85
2023-07-19T23:54:56.033Z,9.55
2023-07-19T23:57:23.814Z,10.07
2023-07-19T23:59:51.521Z,10.52
